Time;durP1;ratioP1;P1;durP2;ratioP2;P2;SDS_P1;SDS_P2;PMS_P1;PMS_P2;Temp;Humidity;BMP_temperature;BMP_pressure;BME280_temperature;BME280_humidity;BME280_pressure;Samples;Min_cycle;Max_cycle;Signal;HPM_P1;HPM_P2
2023/05/07 00:01:02;;;;;;;29.10;19.55;;;;;;;-143.48;100.00;118439.88;5038908;28;20029;-73
2023/05/07 00:03:27;;;;;;;32.42;19.25;;;;;;;-143.48;100.00;118439.88;5056737;28;20028;-73
2023/05/07 00:05:53;;;;;;;27.63;18.52;;;;;;;-143.48;100.00;118439.88;5038749;28;20502;-73
2023/05/07 00:08:18;;;;;;;31.48;18.48;;;;;;;-143.48;100.00;118439.88;5056528;28;20024;-72
2023/05/07 00:10:44;;;;;;;32.33;18.70;;;;;;;-143.48;100.00;118439.88;5038758;28;20052;-72
2023/05/07 00:13:10;;;;;;;27.92;18.13;;;;;;;-143.48;100.00;118439.88;5038431;28;20036;-72
2023/05/07 00:15:35;;;;;;;29.33;17.50;;;;;;;-143.48;100.00;118439.88;5056607;28;20105;-73
2023/05/07 00:18:00;;;;;;;29.55;17.60;;;;;;;-143.48;100.00;118439.88;5056425;28;20021;-73
2023/05/07 00:20:26;;;;;;;24.75;17.15;;;;;;;-143.48;100.00;118439.88;5056277;28;20524;-73
2023/05/07 00:22:51;;;;;;;25.10;17.10;;;;;;;-143.48;100.00;118439.88;5038435;28;20029;-74
2023/05/07 00:25:19;;;;;;;26.60;16.90;;;;;;;-143.48;100.00;118439.88;5056297;28;20052;-73
2023/05/07 00:27:44;;;;;;;27.75;16.85;;;;;;;-143.48;100.00;118439.88;5038425;28;20035;-73
2023/05/07 00:30:10;;;;;;;28.90;17.15;;;;;;;-143.48;100.00;118439.88;5038286;28;20049;-74
2023/05/07 00:32:36;;;;;;;24.80;16.25;;;;;;;-143.48;100.00;118439.88;5056160;28;20468;-73
2023/05/07 00:35:02;;;;;;;21.48;16.02;;;;;;;-143.48;100.00;118439.88;5038231;28;20083;-74
2023/05/07 00:37:27;;;;;;;25.95;16.50;;;;;;;-143.48;100.00;118439.88;5056050;28;20100;-72
2023/05/07 00:39:52;;;;;;;27.27;15.80;;;;;;;-143.48;100.00;118439.88;5038062;28;20028;-72
2023/05/07 00:42:18;;;;;;;24.65;15.88;;;;;;;-143.48;100.00;118439.88;5056208;28;20029;-73
2023/05/07 00:44:43;;;;;;;23.83;15.38;;;;;;;-143.48;100.00;118439.88;5055960;28;20691;-74
2023/05/07 00:47:08;;;;;;;25.65;14.98;;;;;;;-143.48;100.00;118439.88;5055771;28;20041;-73
2023/05/07 00:49:44;;;;;;;23.58;15.18;;;;;;;-143.48;100.00;118439.88;5056072;28;20033;-74
2023/05/07 00:52:13;;;;;;;20.55;13.57;;;;;;;-143.48;100.00;118439.88;5055737;28;20477;-74
2023/05/07 00:54:40;;;;;;;19.02;13.85;;;;;;;-143.48;100.00;118439.88;5055939;28;20021;-73
2023/05/07 00:57:06;;;;;;;20.52;13.40;;;;;;;-143.48;100.00;118439.88;5037761;28;20016;-73
2023/05/07 00:59:32;;;;;;;22.60;13.43;;;;;;;-143.48;100.00;118439.88;5055284;28;20392;-73
2023/05/07 01:01:57;;;;;;;19.20;13.55;;;;;;;-143.48;100.00;118439.88;5036933;28;20161;-73
2023/05/07 01:04:22;;;;;;;19.30;13.00;;;;;;;-143.48;100.00;118439.88;5055738;28;20021;-71
2023/05/07 01:06:50;;;;;;;20.27;12.68;;;;;;;-143.48;100.00;118439.88;5055443;28;20021;-73
2023/05/07 01:09:16;;;;;;;20.58;12.20;;;;;;;-143.48;100.00;118439.88;5055587;28;20420;-73
2023/05/07 01:11:42;;;;;;;19.35;12.30;;;;;;;-143.48;100.00;118439.88;5055358;28;20017;-73
2023/05/07 01:14:09;;;;;;;18.67;12.50;;;;;;;-143.48;100.00;118439.88;5055530;28;20397;-73
2023/05/07 01:16:34;;;;;;;18.65;11.77;;;;;;;-143.48;100.00;118439.88;5055424;28;20028;-73
2023/05/07 01:19:00;;;;;;;16.80;11.23;;;;;;;-143.48;100.00;118439.88;5055508;28;20392;-73
2023/05/07 01:21:26;;;;;;;18.38;11.32;;;;;;;-143.48;100.00;118439.88;5055746;28;20028;-73
2023/05/07 01:23:53;;;;;;;15.15;11.13;;;;;;;-143.48;100.00;118439.88;5037722;28;20025;-73
2023/05/07 01:26:19;;;;;;;14.68;10.90;;;;;;;-143.48;100.00;118439.88;5055654;28;20029;-73
2023/05/07 01:28:45;;;;;;;16.05;10.77;;;;;;;-143.48;100.00;118439.88;5038339;28;20033;-74
2023/05/07 01:31:13;;;;;;;15.52;10.65;;;;;;;-143.48;100.00;118439.88;5056091;28;20033;-73
2023/05/07 01:33:41;;;;;;;15.85;10.85;;;;;;;-143.48;100.00;118439.88;5056437;28;20021;-74
2023/05/07 01:36:08;;;;;;;18.83;11.77;;;;;;;-143.48;100.00;118439.88;5056994;28;20029;-73
2023/05/07 01:38:36;;;;;;;16.33;11.52;;;;;;;-143.48;100.00;118439.88;5057198;28;20021;-73
2023/05/07 01:41:01;;;;;;;17.35;11.40;;;;;;;-143.48;100.00;118439.88;5057591;28;20537;-72
2023/05/07 01:43:28;;;;;;;20.88;10.98;;;;;;;-143.48;100.00;118439.88;5057901;28;20024;-74
2023/05/07 01:45:54;;;;;;;16.05;11.45;;;;;;;-143.48;100.00;118439.88;5058337;28;20021;-74
2023/05/07 01:48:20;;;;;;;16.17;10.85;;;;;;;-143.48;100.00;118439.88;5058603;28;20041;-72
2023/05/07 01:50:46;;;;;;;17.58;11.00;;;;;;;-143.48;100.00;118439.88;5042087;28;20481;-73
2023/05/07 01:53:11;;;;;;;16.42;10.90;;;;;;;-143.48;100.00;118439.88;5056583;28;20081;-72
2023/05/07 01:55:37;;;;;;;14.45;10.75;;;;;;;-143.48;100.00;118439.88;5074297;28;20040;-72
2023/05/07 01:58:03;;;;;;;20.52;10.82;;;;;;;-143.48;100.00;118439.88;5074102;28;20103;-73
2023/05/07 02:00:28;;;;;;;17.02;10.85;;;;;;;-143.48;100.00;118439.88;5074240;28;20112;-72
2023/05/07 02:02:54;;;;;;;19.63;10.60;;;;;;;-143.48;100.00;118439.88;5074680;28;20037;-72
2023/05/07 02:05:20;;;;;;;14.82;10.70;;;;;;;-143.48;100.00;118439.88;5074094;28;20029;-72
2023/05/07 02:07:45;;;;;;;14.55;10.23;;;;;;;-143.48;100.00;118439.88;5056762;28;20044;-71
2023/05/07 02:10:10;;;;;;;14.60;10.73;;;;;;;-143.48;100.00;118439.88;5075133;28;20040;-72
2023/05/07 02:12:36;;;;;;;12.50;9.73;;;;;;;-143.48;100.00;118439.88;5058082;28;20035;-69
2023/05/07 02:15:01;;;;;;;18.73;11.15;;;;;;;-143.48;100.00;118439.88;5075335;28;20044;-71
2023/05/07 02:17:26;;;;;;;17.20;10.95;;;;;;;-143.48;100.00;118439.88;5074304;28;20025;-72
2023/05/07 02:19:52;;;;;;;15.25;11.27;;;;;;;-143.48;100.00;118439.88;5075797;28;20025;-72
2023/05/07 02:22:17;;;;;;;19.30;11.38;;;;;;;-143.48;100.00;118439.88;5076581;28;20028;-73
2023/05/07 02:24:44;;;;;;;17.40;11.80;;;;;;;-143.48;100.00;118439.88;5075908;28;20025;-75
2023/05/07 02:27:09;;;;;;;14.70;10.93;;;;;;;-143.48;100.00;118439.88;5058623;28;20052;-73
2023/05/07 02:29:35;;;;;;;18.00;10.75;;;;;;;-143.48;100.00;118439.88;5075444;28;20029;-76
2023/05/07 02:32:00;;;;;;;17.52;11.30;;;;;;;-143.48;100.00;118439.88;5074915;28;20029;-75
2023/05/07 02:34:25;;;;;;;17.85;10.63;;;;;;;-143.48;100.00;118439.88;5052634;28;20033;-74
2023/05/07 02:36:51;;;;;;;14.55;10.63;;;;;;;-143.48;100.00;118439.88;5061121;28;20044;-73
2023/05/07 02:39:16;;;;;;;14.38;10.80;;;;;;;-143.48;100.00;118439.88;5041838;28;20073;-74
2023/05/07 02:41:42;;;;;;;14.35;11.18;;;;;;;-143.48;100.00;118439.88;5058555;28;20448;-73
2023/05/07 02:44:07;;;;;;;17.58;10.60;;;;;;;-143.48;100.00;118439.88;5058279;28;20424;-73
2023/05/07 02:46:33;;;;;;;14.18;10.48;;;;;;;-143.48;100.00;118439.88;5056840;28;20044;-74
2023/05/07 02:48:58;;;;;;;13.05;10.48;;;;;;;-143.48;100.00;118439.88;5056631;28;20104;-73
2023/05/07 02:51:23;;;;;;;16.52;11.18;;;;;;;-143.48;100.00;118439.88;5056266;28;20025;-74
2023/05/07 02:53:49;;;;;;;14.50;10.05;;;;;;;-143.48;100.00;118439.88;5037676;28;20021;-74
2023/05/07 02:56:15;;;;;;;15.85;10.52;;;;;;;-143.48;100.00;118439.88;5054940;28;20079;-73
2023/05/07 02:58:41;;;;;;;15.75;10.93;;;;;;;-143.48;100.00;118439.88;5054956;28;20017;-75
2023/05/07 03:01:07;;;;;;;15.45;10.90;;;;;;;-143.48;100.00;118439.88;5036429;28;20021;-73
2023/05/07 03:03:32;;;;;;;17.73;10.73;;;;;;;-143.48;100.00;118439.88;5054011;28;20029;-73
2023/05/07 03:05:58;;;;;;;15.65;11.13;;;;;;;-143.48;100.00;118439.88;5035532;28;20035;-74
2023/05/07 03:08:24;;;;;;;15.38;10.93;;;;;;;-143.48;100.00;118439.88;5053631;28;20083;-73
2023/05/07 03:10:49;;;;;;;16.23;10.85;;;;;;;-143.48;100.00;118439.88;5035643;28;20024;-73
2023/05/07 03:13:15;;;;;;;16.10;11.48;;;;;;;-143.48;100.00;118439.88;5053457;28;20036;-73
2023/05/07 03:15:40;;;;;;;15.77;11.18;;;;;;;-143.48;100.00;118439.88;5053517;28;20074;-73
2023/05/07 03:18:05;;;;;;;14.98;11.27;;;;;;;-143.48;100.00;118439.88;5053272;28;20025;-74
2023/05/07 03:20:31;;;;;;;15.57;11.20;;;;;;;-143.48;100.00;118439.88;5035365;28;20477;-74
2023/05/07 03:22:56;;;;;;;15.20;11.00;;;;;;;-143.48;100.00;118439.88;5034945;28;20167;-74
2023/05/07 03:25:22;;;;;;;14.25;10.70;;;;;;;-143.48;100.00;118439.88;5052828;28;20025;-74
2023/05/07 03:27:47;;;;;;;15.43;11.10;;;;;;;-143.48;100.00;118439.88;5051958;28;20059;-73
2023/05/07 03:30:12;;;;;;;15.88;11.07;;;;;;;-143.48;100.00;118439.88;5033236;28;20025;-73
2023/05/07 03:32:38;;;;;;;15.77;11.25;;;;;;;-143.48;100.00;118439.88;5033340;28;20198;-73
2023/05/07 03:35:03;;;;;;;14.80;11.43;;;;;;;-143.48;100.00;118439.88;5051700;28;20029;-73
2023/05/07 03:37:29;;;;;;;14.73;11.20;;;;;;;-143.48;100.00;118439.88;5051490;28;20103;-72
2023/05/07 03:39:54;;;;;;;13.95;10.68;;;;;;;-143.48;100.00;118439.88;5033595;28;20461;-73
2023/05/07 03:42:20;;;;;;;14.93;11.18;;;;;;;-143.48;100.00;118439.88;5051915;28;20025;-73
2023/05/07 03:44:45;;;;;;;17.95;11.13;;;;;;;-143.48;100.00;118439.88;5052856;28;20392;-73
2023/05/07 03:47:10;;;;;;;15.52;10.93;;;;;;;-143.48;100.00;118439.88;5052790;28;20456;-72
2023/05/07 03:49:36;;;;;;;16.83;11.45;;;;;;;-143.48;100.00;118439.88;5052881;28;20021;-73
2023/05/07 03:52:02;;;;;;;15.90;11.63;;;;;;;-143.48;100.00;118439.88;5052832;28;20029;-73
2023/05/07 03:54:27;;;;;;;20.05;11.40;;;;;;;-143.48;100.00;118439.88;5034398;28;20017;-73
2023/05/07 03:56:52;;;;;;;17.40;11.38;;;;;;;-143.48;100.00;118439.88;5053171;28;20025;-73
2023/05/07 03:59:18;;;;;;;14.25;11.82;;;;;;;-143.48;100.00;118439.88;5052896;28;20033;-74
2023/05/07 04:01:43;;;;;;;19.30;11.43;;;;;;;-143.48;100.00;118439.88;5052821;28;20032;-74
2023/05/07 04:04:08;;;;;;;17.10;11.75;;;;;;;-143.48;100.00;118439.88;5052865;28;20099;-74
2023/05/07 04:06:34;;;;;;;13.93;10.82;;;;;;;-143.48;100.00;118439.88;5052748;28;20128;-73
2023/05/07 04:08:59;;;;;;;16.23;11.25;;;;;;;-143.48;100.00;118439.88;5034843;28;20021;-73
2023/05/07 04:11:24;;;;;;;18.73;10.77;;;;;;;-143.48;100.00;118439.88;5034893;28;20086;-73
2023/05/07 04:13:50;;;;;;;14.70;10.68;;;;;;;-143.48;100.00;118439.88;5052921;28;20028;-72
2023/05/07 04:16:15;;;;;;;14.10;10.85;;;;;;;-143.48;100.00;118439.88;5052687;28;20396;-72
2023/05/07 04:18:41;;;;;;;15.52;11.10;;;;;;;-143.48;100.00;118439.88;5052635;28;20081;-73
2023/05/07 04:21:18;;;;;;;18.15;11.30;;;;;;;-143.48;100.00;118439.88;5052780;28;20473;-72
2023/05/07 04:23:43;;;;;;;15.10;11.05;;;;;;;-143.48;100.00;118439.88;5052633;28;20067;-73
2023/05/07 04:26:09;;;;;;;16.13;11.80;;;;;;;-143.48;100.00;118439.88;5052530;28;20049;-73
2023/05/07 04:28:35;;;;;;;15.27;10.18;;;;;;;-143.48;100.00;118439.88;5034738;28;20484;-72
2023/05/07 04:31:00;;;;;;;14.43;10.50;;;;;;;-143.48;100.00;118439.88;5052602;28;20013;-73
2023/05/07 04:33:25;;;;;;;18.65;10.95;;;;;;;-143.48;100.00;118439.88;5052578;28;20029;-73
2023/05/07 04:35:51;;;;;;;15.40;10.43;;;;;;;-143.48;100.00;118439.88;5055082;28;20147;-73
2023/05/07 04:38:18;;;;;;;16.33;10.43;;;;;;;-143.48;100.00;118439.88;5038091;28;20466;-72
2023/05/07 04:40:43;;;;;;;13.48;10.80;;;;;;;-143.48;100.00;118439.88;5056105;28;20491;-74
2023/05/07 04:43:09;;;;;;;17.65;10.30;;;;;;;-143.48;100.00;118439.88;5056004;28;20335;-72
2023/05/07 04:45:35;;;;;;;16.80;11.10;;;;;;;-143.48;100.00;118439.88;5055844;28;20032;-72
2023/05/07 04:48:00;;;;;;;15.80;10.05;;;;;;;-143.48;100.00;118439.88;5038026;28;20041;-73
2023/05/07 04:50:25;;;;;;;12.85;10.40;;;;;;;-143.48;100.00;118439.88;5055763;28;20043;-73
2023/05/07 04:52:51;;;;;;;15.68;10.60;;;;;;;-143.48;100.00;118439.88;5055687;28;20035;-74
2023/05/07 04:55:16;;;;;;;13.32;10.05;;;;;;;-143.48;100.00;118439.88;5055707;28;20021;-73
2023/05/07 04:57:41;;;;;;;13.25;10.13;;;;;;;-143.48;100.00;118439.88;5055817;28;20464;-74
2023/05/07 05:00:10;;;;;;;19.45;10.40;;;;;;;-143.48;100.00;118439.88;5055775;28;20024;-75
2023/05/07 05:02:35;;;;;;;16.90;10.38;;;;;;;-143.48;100.00;118439.88;5037654;28;20029;-74
2023/05/07 05:05:02;;;;;;;15.93;10.55;;;;;;;-143.48;100.00;118439.88;5037623;28;20472;-74
2023/05/07 05:07:28;;;;;;;14.93;10.75;;;;;;;-143.48;100.00;118439.88;5055513;28;20017;-73
2023/05/07 05:09:53;;;;;;;14.70;10.90;;;;;;;-143.48;100.00;118439.88;5055520;28;20017;-71
2023/05/07 05:12:19;;;;;;;15.82;11.05;;;;;;;-143.48;100.00;118439.88;5037533;28;20495;-72
2023/05/07 05:14:44;;;;;;;12.98;10.20;;;;;;;-143.48;100.00;118439.88;5055211;28;20032;-73
2023/05/07 05:17:09;;;;;;;14.63;10.85;;;;;;;-143.48;100.00;118439.88;5037538;28;20485;-74
2023/05/07 05:19:35;;;;;;;17.33;11.20;;;;;;;-143.48;100.00;118439.88;5055254;28;20064;-73
2023/05/07 05:22:03;;;;;;;18.88;10.65;;;;;;;-143.48;100.00;118439.88;5055383;28;20055;-74
2023/05/07 05:24:29;;;;;;;16.98;11.40;;;;;;;-143.48;100.00;118439.88;5055258;28;20061;-72
2023/05/07 05:26:55;;;;;;;15.23;10.63;;;;;;;-143.48;100.00;118439.88;5037002;28;20130;-73
2023/05/07 05:29:20;;;;;;;18.35;11.10;;;;;;;-143.48;100.00;118439.88;5037412;28;20488;-73
2023/05/07 05:31:46;;;;;;;15.38;11.10;;;;;;;-143.48;100.00;118439.88;5054921;28;20036;-73
2023/05/07 05:34:11;;;;;;;17.65;11.43;;;;;;;-143.48;100.00;118439.88;5055072;28;20100;-74
2023/05/07 05:36:36;;;;;;;17.08;10.70;;;;;;;-143.48;100.00;118439.88;5055089;28;20032;-75
2023/05/07 05:39:01;;;;;;;14.80;10.20;;;;;;;-143.48;100.00;118439.88;5055104;28;20079;-73
2023/05/07 05:41:27;;;;;;;15.45;10.18;;;;;;;-143.48;100.00;118439.88;5055004;28;20021;-74
2023/05/07 05:43:52;;;;;;;13.00;10.38;;;;;;;-143.48;100.00;118439.88;5054873;28;20100;-73
2023/05/07 05:46:17;;;;;;;14.73;10.65;;;;;;;-143.48;100.00;118439.88;5036250;28;20377;-72
2023/05/07 05:48:43;;;;;;;13.70;10.88;;;;;;;-143.48;100.00;118439.88;5054770;28;20032;-73
2023/05/07 05:51:08;;;;;;;15.35;10.98;;;;;;;-143.48;100.00;118439.88;5054601;28;20028;-73
2023/05/07 05:53:33;;;;;;;17.63;11.32;;;;;;;-143.48;100.00;118439.88;5054813;28;20104;-73
2023/05/07 05:55:59;;;;;;;15.60;11.68;;;;;;;-143.48;100.00;118439.88;5036759;28;20013;-73
2023/05/07 05:58:24;;;;;;;18.50;12.13;;;;;;;-143.48;100.00;118439.88;5054746;28;20040;-74
2023/05/07 06:00:52;;;;;;;21.13;12.30;;;;;;;-143.48;100.00;118439.88;5053745;28;20393;-73
2023/05/07 06:03:17;;;;;;;16.50;11.95;;;;;;;-143.48;100.00;118439.88;5052492;28;20249;-71
2023/05/07 06:05:42;;;;;;;20.23;12.50;;;;;;;-143.48;100.00;118439.88;5052859;28;20029;-73
2023/05/07 06:08:08;;;;;;;18.05;13.05;;;;;;;-143.48;100.00;118439.88;5054265;28;20029;-73
2023/05/07 06:10:33;;;;;;;17.13;12.65;;;;;;;-143.48;100.00;118439.88;5054324;28;20024;-73
2023/05/07 06:12:58;;;;;;;19.27;13.60;;;;;;;-143.48;100.00;118439.88;5036389;28;20020;-73
2023/05/07 06:15:23;;;;;;;16.13;13.27;;;;;;;-143.48;100.00;118439.88;5054342;28;20400;-73
2023/05/07 06:17:49;;;;;;;19.50;13.15;;;;;;;-143.48;100.00;118439.88;5054210;28;20059;-72
2023/05/07 06:20:14;;;;;;;21.20;13.52;;;;;;;-143.48;100.00;118439.88;5054205;28;20098;-73
2023/05/07 06:22:39;;;;;;;17.45;12.27;;;;;;;-143.48;100.00;118439.88;5054252;28;20526;-73
2023/05/07 06:25:05;;;;;;;19.45;13.00;;;;;;;-143.48;100.00;118439.88;5054014;28;20029;-73
2023/05/07 06:27:30;;;;;;;20.50;13.15;;;;;;;-143.48;100.00;118439.88;5036066;28;20030;-73
2023/05/07 06:29:56;;;;;;;19.58;13.00;;;;;;;-143.48;100.00;118439.88;5054052;28;20025;-74
2023/05/07 06:32:21;;;;;;;18.38;12.98;;;;;;;-143.48;100.00;118439.88;5053848;28;20032;-73
2023/05/07 06:34:46;;;;;;;17.70;12.88;;;;;;;-143.48;100.00;118439.88;5053807;28;20024;-73
2023/05/07 06:37:12;;;;;;;17.42;13.27;;;;;;;-143.48;100.00;118439.88;5053977;28;20024;-74
2023/05/07 06:39:37;;;;;;;20.40;13.18;;;;;;;-143.48;100.00;118439.88;5053974;28;20431;-72
2023/05/07 06:42:04;;;;;;;20.35;13.60;;;;;;;-143.48;100.00;118439.88;5036119;28;20024;-72
2023/05/07 06:44:29;;;;;;;21.77;13.63;;;;;;;-143.48;100.00;118439.88;5035778;28;20028;-72
2023/05/07 06:46:55;;;;;;;20.27;13.98;;;;;;;-143.48;100.00;118439.88;5053460;28;20041;-72
2023/05/07 06:49:20;;;;;;;18.27;13.60;;;;;;;-143.48;100.00;118439.88;5035796;28;20110;-73
2023/05/07 06:51:45;;;;;;;22.48;14.60;;;;;;;-143.48;100.00;118439.88;5053655;28;20021;-72
2023/05/07 06:54:10;;;;;;;21.00;13.85;;;;;;;-143.48;100.00;118439.88;5053684;28;20025;-73
2023/05/07 06:56:36;;;;;;;17.08;13.57;;;;;;;-143.48;100.00;118439.88;5053593;28;20024;-73
2023/05/07 06:59:02;;;;;;;21.17;13.77;;;;;;;-143.48;100.00;118439.88;5052807;28;20020;-73
2023/05/07 07:01:28;;;;;;;20.08;13.48;;;;;;;-143.48;100.00;118439.88;5035554;28;20028;-74
2023/05/07 07:03:54;;;;;;;17.85;12.80;;;;;;;-143.48;100.00;118439.88;5053279;28;20020;-73
2023/05/07 07:06:19;;;;;;;17.25;13.00;;;;;;;-143.48;99.40;118439.88;5035334;28;20467;-72
2023/05/07 07:08:45;;;;;;;21.05;11.95;;;;;;;-143.48;97.01;118439.88;5053489;28;20107;-73
2023/05/07 07:11:10;;;;;;;19.80;14.02;;;;;;;-143.48;99.65;118439.88;5035458;28;20084;-72
2023/05/07 07:13:36;;;;;;;19.88;12.73;;;;;;;-143.48;99.86;118439.88;5053372;28;20029;-72
2023/05/07 07:16:02;;;;;;;16.10;12.63;;;;;;;-143.48;100.00;118439.88;5035427;28;20123;-73
2023/05/07 07:18:27;;;;;;;19.63;12.30;;;;;;;-143.48;99.72;118439.88;5035326;28;20401;-74
2023/05/07 07:20:53;;;;;;;18.73;12.70;;;;;;;-143.48;99.66;118439.88;5035285;28;20111;-72
2023/05/07 07:23:18;;;;;;;14.13;12.13;;;;;;;-143.48;97.82;118439.88;5035312;28;20056;-73
2023/05/07 07:25:44;;;;;;;18.60;11.75;;;;;;;-143.48;97.44;118439.88;5053028;28;20029;-73
2023/05/07 07:28:10;;;;;;;16.67;12.63;;;;;;;-143.48;96.47;118439.88;5035472;28;20025;-73
2023/05/07 07:30:36;;;;;;;14.77;11.38;;;;;;;-143.48;97.28;118439.88;5053177;28;20390;-73
2023/05/07 07:33:02;;;;;;;17.92;12.43;;;;;;;-143.48;98.92;118439.88;5053015;28;20026;-73
2023/05/07 07:35:34;;;;;;;17.02;12.30;;;;;;;-143.48;96.55;118439.88;5052959;28;20104;-75
2023/05/07 07:38:00;;;;;;;17.45;11.98;;;;;;;-143.48;95.84;118439.88;5035231;28;20028;-73
2023/05/07 07:40:25;;;;;;;16.75;11.70;;;;;;;-143.48;95.87;118439.88;5034978;28;20028;-73
2023/05/07 07:42:51;;;;;;;20.02;12.65;;;;;;;-143.48;98.19;118439.88;5053240;28;20388;-72
2023/05/07 07:45:17;;;;;;;15.38;12.55;;;;;;;-143.48;100.00;118439.88;5034974;28;20111;-72
2023/05/07 07:47:42;;;;;;;16.63;13.13;;;;;;;-143.48;98.61;118439.88;5052718;28;20102;-72
2023/05/07 07:50:08;;;;;;;15.57;12.63;;;;;;;-143.48;97.45;118439.88;5035101;28;20373;-73
2023/05/07 07:52:34;;;;;;;18.40;12.52;;;;;;;-143.48;95.57;118439.88;5035130;28;20029;-73
2023/05/07 07:54:59;;;;;;;18.73;12.55;;;;;;;-143.48;96.70;118439.88;5053020;28;20071;-73
2023/05/07 07:57:25;;;;;;;18.50;12.70;;;;;;;-143.48;95.66;118439.88;5035213;28;20047;-73
2023/05/07 07:59:50;;;;;;;18.63;12.55;;;;;;;-143.48;97.06;118439.88;5052858;28;20476;-73
2023/05/07 08:02:16;;;;;;;18.30;12.95;;;;;;;-143.48;96.68;118439.88;5052853;28;20098;-73
2023/05/07 08:04:43;;;;;;;16.50;12.57;;;;;;;-143.48;95.11;118439.88;5052760;28;20100;-73
2023/05/07 08:07:09;;;;;;;18.90;13.27;;;;;;;-143.48;95.83;118439.88;5034956;28;20117;-73
2023/05/07 08:09:35;;;;;;;16.88;12.98;;;;;;;-143.48;95.81;118439.88;5053333;28;20028;-73
2023/05/07 08:12:00;;;;;;;16.38;12.93;;;;;;;-143.48;94.82;118439.88;5038647;28;20036;-73
2023/05/07 08:14:28;;;;;;;18.70;12.77;;;;;;;-143.48;95.66;118439.88;5038744;28;20048;-74
2023/05/07 08:16:53;;;;;;;17.80;13.40;;;;;;;-143.48;95.21;118439.88;5038800;28;20024;-74
2023/05/07 08:19:20;;;;;;;17.98;13.27;;;;;;;-143.48;95.95;118439.88;5056497;28;20428;-74
2023/05/07 08:21:47;;;;;;;19.38;13.70;;;;;;;-143.48;94.54;118439.88;5038678;28;20032;-74
2023/05/07 08:24:12;;;;;;;20.00;13.85;;;;;;;-143.48;95.68;118439.88;5038584;28;20534;-74
2023/05/07 08:26:39;;;;;;;15.95;12.98;;;;;;;-143.48;94.76;118439.88;5056257;28;20025;-73
2023/05/07 08:29:04;;;;;;;18.00;13.35;;;;;;;-143.48;95.35;118439.88;5038526;28;20025;-73
2023/05/07 08:31:29;;;;;;;18.58;12.40;;;;;;;-143.48;95.55;118439.88;5056322;28;20032;-73
2023/05/07 08:33:55;;;;;;;16.65;13.07;;;;;;;-143.48;93.79;118439.88;5056272;28;20061;-74
2023/05/07 08:36:21;;;;;;;19.70;12.55;;;;;;;-143.48;94.67;118439.88;5038474;28;20037;-73
2023/05/07 08:38:46;;;;;;;17.38;13.40;;;;;;;-143.48;95.28;118439.88;5038418;28;20029;-73
2023/05/07 08:41:11;;;;;;;17.05;12.90;;;;;;;-143.48;93.88;118439.88;5056032;28;20107;-73
2023/05/07 08:43:37;;;;;;;18.33;13.00;;;;;;;-143.48;93.82;118439.88;5038115;28;20083;-73
2023/05/07 08:46:04;;;;;;;16.13;12.75;;;;;;;-143.48;93.75;118439.88;5037848;28;20100;-73
2023/05/07 08:48:32;;;;;;;16.58;12.68;;;;;;;-143.48;92.37;118439.88;5037987;28;20025;-74
2023/05/07 08:50:58;;;;;;;15.75;13.02;;;;;;;-143.48;92.65;118439.88;5056077;28;20025;-67
2023/05/07 08:53:24;;;;;;;15.15;12.50;;;;;;;-143.48;90.32;118439.88;5055917;28;20028;-68
2023/05/07 08:55:50;;;;;;;15.52;12.50;;;;;;;-143.48;89.88;118439.88;5037915;28;20014;-67
2023/05/07 08:58:15;;;;;;;17.55;11.65;;;;;;;-143.48;87.89;118439.88;5055860;28;20036;-68
2023/05/07 09:00:42;;;;;;;16.17;13.07;;;;;;;-143.48;88.77;118439.88;5037946;28;20432;-68
2023/05/07 09:03:07;;;;;;;13.52;11.32;;;;;;;-143.48;85.06;118439.88;5037855;28;20029;-67
2023/05/07 09:05:32;;;;;;;15.52;10.88;;;;;;;-143.48;83.94;118439.88;5055430;28;20488;-67
2023/05/07 09:08:06;;;;;;;16.48;11.30;;;;;;;-143.48;84.26;118439.88;5037603;28;20388;-68
2023/05/07 09:10:33;;;;;;;13.40;10.88;;;;;;;-143.48;82.96;118439.88;5055460;28;20033;-69
2023/05/07 09:12:58;;;;;;;16.50;11.57;;;;;;;-143.48;79.74;118439.88;5055448;28;20032;-69
2023/05/07 09:15:24;;;;;;;13.25;10.55;;;;;;;-143.48;81.44;118439.88;5037641;28;20028;-73
2023/05/07 09:17:50;;;;;;;14.23;10.77;;;;;;;-143.48;80.19;118439.88;5037622;28;20071;-75
2023/05/07 09:20:16;;;;;;;12.48;10.23;;;;;;;-143.48;76.04;118439.88;5037500;28;20033;-74
2023/05/07 09:22:42;;;;;;;12.52;10.40;;;;;;;-143.48;75.03;118439.88;5036754;28;20017;-74
2023/05/07 09:25:09;;;;;;;13.00;10.20;;;;;;;-143.48;74.19;118439.88;5055268;28;20031;-74
2023/05/07 09:27:34;;;;;;;11.95;9.70;;;;;;;-143.48;71.87;118439.88;5037415;28;20029;-73
2023/05/07 09:30:03;;;;;;;13.32;9.52;;;;;;;-143.48;70.17;118439.88;5037304;28;20039;-73
2023/05/07 09:32:30;;;;;;;11.60;9.02;;;;;;;-143.48;72.05;118439.88;5037419;28;20036;-73
2023/05/07 09:34:55;;;;;;;13.73;9.18;;;;;;;-143.48;72.52;118439.88;5055544;28;20100;-73
2023/05/07 09:37:21;;;;;;;14.45;9.27;;;;;;;-143.48;74.71;118439.88;5055754;28;20507;-74
2023/05/07 09:39:48;;;;;;;12.13;9.27;;;;;;;-143.48;75.18;118439.88;5055579;28;20033;-74
2023/05/07 09:42:17;;;;;;;9.95;8.43;;;;;;;-143.48;72.09;118439.88;5038112;28;20071;-74
2023/05/07 09:44:45;;;;;;;13.07;8.77;;;;;;;-143.48;70.68;118439.88;5055882;28;20017;-73
2023/05/07 09:47:11;;;;;;;10.98;8.75;;;;;;;-143.48;71.63;118439.88;5058422;28;20045;-73
2023/05/07 09:49:39;;;;;;;11.82;8.48;;;;;;;-143.48;71.00;118439.88;5061225;28;20029;-72
2023/05/07 09:52:08;;;;;;;10.45;8.45;;;;;;;-143.48;70.19;118439.88;5060935;28;20108;-72
2023/05/07 09:54:35;;;;;;;11.55;8.68;;;;;;;-143.48;68.15;118439.88;5044122;28;20063;-74
2023/05/07 09:57:04;;;;;;;10.77;8.32;;;;;;;-143.48;68.88;118439.88;5061851;28;20032;-74
2023/05/07 09:59:32;;;;;;;11.63;9.18;;;;;;;-143.48;68.44;118439.88;5043802;28;20029;-74
2023/05/07 10:01:59;;;;;;;10.38;7.72;;;;;;;-143.48;70.15;118439.88;5060542;28;20025;-73
2023/05/07 10:04:26;;;;;;;10.68;8.00;;;;;;;-143.48;69.01;118439.88;5058121;28;20029;-73
2023/05/07 10:06:51;;;;;;;8.70;7.78;;;;;;;-143.48;69.49;118439.88;5037838;28;20024;-74
2023/05/07 10:09:17;;;;;;;10.98;8.10;;;;;;;-143.48;69.34;118439.88;5037417;28;20486;-74
2023/05/07 10:11:43;;;;;;;13.07;8.95;;;;;;;-143.48;67.93;118439.88;5054889;28;20025;-73
2023/05/07 10:14:10;;;;;;;14.05;8.98;;;;;;;-143.48;68.10;118439.88;5054537;28;20032;-73
2023/05/07 10:16:36;;;;;;;11.63;8.82;;;;;;;-143.48;65.69;118439.88;5054718;28;20075;-74
2023/05/07 10:19:11;;;;;;;12.32;8.35;;;;;;;-143.48;67.95;118439.88;5036753;28;20040;-73
2023/05/07 10:21:39;;;;;;;12.85;8.63;;;;;;;-143.48;67.96;118439.88;5036704;28;20020;-74
2023/05/07 10:24:13;;;;;;;12.73;8.20;;;;;;;-143.48;66.27;118439.88;5054624;28;20033;-74
2023/05/07 10:26:42;;;;;;;11.50;8.18;;;;;;;-143.48;64.59;118439.88;5055516;28;20035;-73
2023/05/07 10:29:17;;;;;;;12.68;8.30;;;;;;;-143.48;66.52;118439.88;5054073;28;20025;-74
2023/05/07 10:31:54;;;;;;;15.80;7.90;;;;;;;-143.48;63.69;118439.88;5054026;28;20043;-74
2023/05/07 10:34:26;;;;;;;10.85;8.05;;;;;;;-143.48;65.40;118439.88;5053781;28;20021;-74
2023/05/07 10:36:52;;;;;;;12.25;8.30;;;;;;;-143.48;64.08;118439.88;5056917;28;20086;-74
2023/05/07 10:39:20;;;;;;;10.57;7.50;;;;;;;-143.48;63.84;118439.88;5055233;28;20452;-74
2023/05/07 10:41:45;;;;;;;9.05;7.22;;;;;;;-143.48;64.56;118439.88;5036788;28;20162;-74
2023/05/07 10:44:11;;;;;;;10.23;6.88;;;;;;;-143.48;63.91;118439.88;5054780;28;20472;-74